Time;durP1;ratioP1;P1;durP2;ratioP2;P2;SDS_P1;SDS_P2;PMS_P1;PMS_P2;Temp;Humidity;BMP_temperature;BMP_pressure;BME280_temperature;BME280_humidity;BME280_pressure;Samples;Min_cycle;Max_cycle;Signal;HPM_P1;HPM_P2
2022/03/05 00:01:14;;;;;;;10.60;5.60;;;;;;;2.77;55.61;100992.55;106218;1273;25242;-81
2022/03/05 00:03:42;;;;;;;11.00;6.60;;;;;;;2.80;55.61;100993.55;106252;1273;22857;-82
2022/03/05 00:06:10;;;;;;;9.60;5.70;;;;;;;2.77;55.52;100992.73;106131;1273;23940;-80
2022/03/05 00:08:37;;;;;;;10.50;6.20;;;;;;;2.74;55.52;100994.73;106183;1273;23179;-82
2022/03/05 00:11:04;;;;;;;8.10;4.80;;;;;;;2.74;55.53;100994.90;106053;1273;25589;-78
2022/03/05 00:13:32;;;;;;;10.20;5.20;;;;;;;2.77;55.64;100990.15;106159;1274;22592;-80
2022/03/05 00:15:59;;;;;;;9.80;5.10;;;;;;;2.79;55.26;100990.02;106184;1273;25456;-76
2022/03/05 00:18:27;;;;;;;9.90;5.40;;;;;;;2.76;54.95;100986.10;106251;1273;22721;-80
2022/03/05 00:20:54;;;;;;;10.40;5.10;;;;;;;2.76;54.98;100990.42;106377;1273;25255;-81
2022/03/05 00:23:21;;;;;;;8.20;5.00;;;;;;;2.75;54.88;100988.68;106093;1273;22554;-74
2022/03/05 00:25:49;;;;;;;10.40;5.10;;;;;;;2.73;54.69;100985.65;106340;1273;26991;-78
2022/03/05 00:28:16;;;;;;;9.40;4.90;;;;;;;2.72;54.69;100986.34;106268;1273;22871;-81
2022/03/05 00:30:43;;;;;;;7.20;4.70;;;;;;;2.74;54.82;100982.89;106125;1273;22529;-83
2022/03/05 00:33:10;;;;;;;9.50;5.30;;;;;;;2.76;54.87;100987.50;105961;1274;25239;-82
2022/03/05 00:35:37;;;;;;;8.00;4.90;;;;;;;2.74;54.39;100980.14;106021;1274;25206;-82
2022/03/05 00:38:04;;;;;;;8.00;5.00;;;;;;;2.71;54.34;100984.55;106062;1274;25327;-83
2022/03/05 00:40:31;;;;;;;9.90;4.70;;;;;;;2.71;54.21;100980.91;106075;1273;22617;-82
2022/03/05 00:42:58;;;;;;;9.40;5.00;;;;;;;2.72;53.92;100982.50;106208;1273;26693;-84
2022/03/05 00:45:25;;;;;;;8.70;4.70;;;;;;;2.73;53.87;100978.70;105880;1276;22541;-77
2022/03/05 00:47:53;;;;;;;7.40;4.10;;;;;;;2.77;53.85;100977.95;106115;1273;25481;-80
2022/03/05 00:50:19;;;;;;;8.00;4.60;;;;;;;2.76;53.82;100972.86;106198;1273;24397;-81
2022/03/05 00:52:46;;;;;;;6.50;4.20;;;;;;;2.79;53.32;100976.46;106058;1274;22474;-80
2022/03/05 00:55:13;;;;;;;6.30;3.40;;;;;;;2.77;52.96;100971.71;106077;1273;22543;-78
2022/03/05 00:57:40;;;;;;;9.80;4.10;;;;;;;2.72;52.59;100974.14;106044;1273;22742;-84
2022/03/05 01:00:11;;;;;;;6.00;3.10;;;;;;;2.67;52.60;100973.12;105960;1273;22543;-77
2022/03/05 01:02:39;;;;;;;6.20;3.60;;;;;;;2.64;52.46;100968.66;106157;1273;22542;-81
2022/03/05 01:05:11;;;;;;;5.40;3.50;;;;;;;2.63;52.55;100971.25;106131;1273;25232;-80
2022/03/05 01:07:38;;;;;;;6.00;3.40;;;;;;;2.62;52.21;100968.77;105870;1274;22551;-79
2022/03/05 01:10:06;;;;;;;4.00;2.90;;;;;;;2.62;52.07;100971.06;106030;1273;22537;-80
2022/03/05 01:12:34;;;;;;;6.30;3.00;;;;;;;2.62;51.99;100967.21;106092;1273;22528;-79
2022/03/05 01:15:02;;;;;;;5.00;3.00;;;;;;;2.60;51.79;100969.40;106245;1273;25427;-81
2022/03/05 01:17:29;;;;;;;3.60;2.70;;;;;;;2.50;51.79;100967.02;105993;1273;23918;-78
2022/03/05 01:19:56;;;;;;;4.40;2.60;;;;;;;2.46;51.67;100966.91;106022;1274;25249;-77
2022/03/05 01:22:23;;;;;;;3.90;2.70;;;;;;;2.40;51.51;100969.48;106012;1274;25252;-82
2022/03/05 01:24:50;;;;;;;4.10;2.40;;;;;;;2.37;51.87;100970.23;106029;1273;22881;-81
2022/03/05 01:27:18;;;;;;;4.00;2.60;;;;;;;2.35;51.79;100971.20;106057;1274;25428;-79
2022/03/05 01:29:45;;;;;;;5.40;2.60;;;;;;;2.28;51.71;100970.45;106055;1273;22223;-81
2022/03/05 01:32:12;;;;;;;3.60;2.40;;;;;;;2.28;51.91;100969.38;106169;1273;22534;-75
2022/03/05 01:34:39;;;;;;;4.50;2.40;;;;;;;2.33;52.13;100972.86;106002;1276;22525;-79
2022/03/05 01:37:06;;;;;;;4.20;2.50;;;;;;;2.39;52.06;100970.11;106104;1273;25257;-78
2022/03/05 01:39:33;;;;;;;4.40;2.90;;;;;;;2.45;52.07;100973.09;105976;1273;25399;-82
2022/03/05 01:42:01;;;;;;;4.20;2.20;;;;;;;2.47;51.97;100969.17;106236;1273;25253;-79
2022/03/05 01:44:28;;;;;;;3.60;2.50;;;;;;;2.51;52.02;100971.20;106233;1273;22556;-78
2022/03/05 01:46:55;;;;;;;4.00;2.70;;;;;;;2.54;51.93;100974.95;106269;1274;22581;-78
2022/03/05 01:49:22;;;;;;;4.20;2.50;;;;;;;2.50;51.61;100973.44;106559;1273;22525;-80
2022/03/05 01:51:49;;;;;;;4.00;2.60;;;;;;;2.50;51.80;100976.21;106279;1273;26484;-79
2022/03/05 01:54:16;;;;;;;5.00;3.20;;;;;;;2.48;51.60;100979.98;106520;1273;24245;-78
2022/03/05 01:56:44;;;;;;;3.20;2.30;;;;;;;2.52;51.76;100980.44;107116;1274;22529;-78
2022/03/05 01:59:11;;;;;;;4.30;2.50;;;;;;;2.53;51.61;100977.86;106585;1274;24355;-79
2022/03/05 02:01:38;;;;;;;4.10;2.90;;;;;;;2.43;51.39;100978.79;106247;1273;22526;-79
2022/03/05 02:04:06;;;;;;;4.60;2.90;;;;;;;2.40;51.66;100981.64;105779;1279;23989;-75
2022/03/05 02:06:34;;;;;;;3.60;3.00;;;;;;;2.36;51.37;100978.72;105689;1281;25247;-82
2022/03/05 02:09:02;;;;;;;3.20;2.70;;;;;;;2.35;51.51;100978.51;105840;1279;22533;-82
2022/03/05 02:11:30;;;;;;;6.20;2.80;;;;;;;2.38;51.57;100982.44;105921;1279;23960;-86
2022/03/05 02:13:57;;;;;;;3.30;2.40;;;;;;;2.36;51.44;100979.41;105777;1279;22540;-82
2022/03/05 02:16:24;;;;;;;4.00;2.60;;;;;;;2.29;51.44;100978.65;107030;1281;22548;-83
2022/03/05 02:18:55;;;;;;;5.50;3.80;;;;;;;2.29;51.67;100981.77;106899;1279;22822;-79
2022/03/05 02:21:27;;;;;;;4.40;2.80;;;;;;;2.30;51.68;100981.13;105818;1277;24300;-78
2022/03/05 02:23:55;;;;;;;4.80;3.20;;;;;;;2.31;51.80;100981.67;107905;1274;22479;-77
2022/03/05 02:26:22;;;;;;;7.90;3.40;;;;;;;2.32;51.58;100980.84;107227;1273;25326;-79
2022/03/05 02:28:50;;;;;;;3.90;2.80;;;;;;;2.32;51.62;100980.83;105794;1273;22571;-78
2022/03/05 02:31:17;;;;;;;7.20;3.00;;;;;;;2.37;51.79;100975.10;106135;1273;26621;-83
2022/03/05 02:33:46;;;;;;;5.40;2.80;;;;;;;2.41;51.74;100972.95;106131;1276;24558;-81
2022/03/05 02:36:13;;;;;;;5.30;3.20;;;;;;;2.43;51.60;100971.98;106097;1276;22655;-88
2022/03/05 02:38:40;;;;;;;5.80;3.60;;;;;;;2.43;51.29;100970.27;106037;1276;22686;-82
2022/03/05 02:41:07;;;;;;;4.40;3.00;;;;;;;2.41;51.52;100971.92;106011;1274;22712;-77
2022/03/05 02:43:34;;;;;;;5.90;3.20;;;;;;;2.44;51.53;100972.72;105879;1276;23931;-77
2022/03/05 02:46:01;;;;;;;6.40;3.20;;;;;;;2.43;51.50;100973.04;106051;1273;23956;-78
2022/03/05 02:48:28;;;;;;;5.40;3.20;;;;;;;2.42;51.81;100972.13;105925;1274;23916;-75
2022/03/05 02:50:55;;;;;;;3.90;2.70;;;;;;;2.42;51.53;100968.14;105892;1276;23967;-74
2022/03/05 02:53:22;;;;;;;5.00;3.00;;;;;;;2.38;51.63;100974.96;105966;1273;25362;-76
2022/03/05 02:55:49;;;;;;;3.60;3.00;;;;;;;2.34;51.47;100965.25;106027;1273;22528;-76
2022/03/05 02:58:16;;;;;;;4.90;3.00;;;;;;;2.34;51.42;100971.71;105921;1273;22654;-75
2022/03/05 03:00:43;;;;;;;6.00;3.30;;;;;;;2.30;51.36;100968.95;105916;1274;25514;-76
2022/03/05 03:03:12;;;;;;;4.90;3.20;;;;;;;2.26;51.44;100975.59;105919;1273;22573;-75
2022/03/05 03:05:39;;;;;;;4.70;2.70;;;;;;;2.25;51.63;100978.67;105878;1273;22570;-75
2022/03/05 03:08:06;;;;;;;3.50;2.40;;;;;;;2.25;51.72;100979.01;105891;1273;22762;-76
2022/03/05 03:10:33;;;;;;;3.70;2.60;;;;;;;2.26;51.62;100983.05;105848;1274;22536;-81
2022/03/05 03:13:00;;;;;;;4.20;2.80;;;;;;;2.15;51.30;100976.45;106087;1273;24052;-79
2022/03/05 03:15:27;;;;;;;4.00;3.10;;;;;;;2.09;51.58;100978.66;105975;1274;22579;-77
2022/03/05 03:17:54;;;;;;;5.40;3.00;;;;;;;2.10;52.05;100977.84;105892;1273;22562;-82
2022/03/05 03:20:25;;;;;;;3.40;2.70;;;;;;;2.20;52.08;100981.46;106045;1273;25244;-77
2022/03/05 03:22:53;;;;;;;3.50;2.60;;;;;;;2.23;52.21;100977.60;106051;1274;26522;-81
2022/03/05 03:25:20;;;;;;;3.50;2.50;;;;;;;2.29;52.28;100976.38;106036;1274;22691;-80
2022/03/05 03:27:48;;;;;;;5.30;2.90;;;;;;;2.34;52.21;100977.25;106043;1274;25416;-79
2022/03/05 03:30:17;;;;;;;3.40;2.50;;;;;;;2.37;51.98;100975.79;106174;1273;25471;-80
2022/03/05 03:32:45;;;;;;;3.80;2.80;;;;;;;2.35;52.29;100974.86;106082;1273;22544;-80
2022/03/05 03:35:14;;;;;;;5.30;2.80;;;;;;;2.37;52.34;100977.70;106299;1273;24238;-79
2022/03/05 03:37:41;;;;;;;4.10;3.00;;;;;;;2.32;51.99;100978.41;106166;1273;22731;-85
2022/03/05 03:40:12;;;;;;;3.90;2.80;;;;;;;2.31;52.24;100980.44;106015;1273;25426;-83
2022/03/05 03:42:41;;;;;;;3.80;2.60;;;;;;;2.32;52.22;100982.20;106096;1274;24190;-78
2022/03/05 03:45:09;;;;;;;5.30;3.10;;;;;;;2.30;52.08;100984.05;106067;1274;22543;-82
2022/03/05 03:47:37;;;;;;;3.90;2.80;;;;;;;2.24;52.15;100980.23;106110;1273;24288;-79
2022/03/05 03:50:05;;;;;;;3.80;2.70;;;;;;;2.24;52.23;100985.43;106202;1273;22536;-77
2022/03/05 03:52:33;;;;;;;3.80;2.90;;;;;;;2.16;52.17;100987.59;106125;1273;25257;-79
2022/03/05 03:55:02;;;;;;;5.10;3.00;;;;;;;2.00;52.28;100984.61;105533;1281;25260;-77
2022/03/05 03:57:29;;;;;;;6.10;3.00;;;;;;;2.00;52.57;100991.20;105705;1281;24363;-75
2022/03/05 03:59:56;;;;;;;4.80;3.00;;;;;;;2.04;52.82;100997.06;105590;1281;25345;-82
2022/03/05 04:02:23;;;;;;;5.00;3.10;;;;;;;2.09;52.92;100999.52;105735;1281;22724;-79
2022/03/05 04:04:50;;;;;;;5.80;3.40;;;;;;;2.15;53.32;100994.88;105699;1281;25324;-74
2022/03/05 04:10:05;;;;;;;4.80;3.20;;;;;;;2.26;52.58;100995.22;105768;1281;22808;-78
2022/03/05 04:12:32;;;;;;;4.50;3.00;;;;;;;2.16;52.51;100995.59;105867;1274;26573;-79
2022/03/05 04:14:59;;;;;;;5.10;3.00;;;;;;;2.14;52.69;100997.42;106033;1276;23017;-82
2022/03/05 04:17:26;;;;;;;4.30;3.00;;;;;;;2.12;52.83;100996.98;105755;1278;22557;-77
2022/03/05 04:19:53;;;;;;;4.30;3.10;;;;;;;2.15;53.17;100999.72;105849;1278;22768;-77
2022/03/05 04:22:20;;;;;;;4.00;2.90;;;;;;;2.18;53.08;100999.14;105810;1278;22761;-75
2022/03/05 04:24:48;;;;;;;3.90;2.80;;;;;;;2.16;52.94;100997.14;105811;1277;25520;-75
2022/03/05 04:27:15;;;;;;;3.20;2.70;;;;;;;2.18;53.13;100998.61;106097;1276;25346;-81
2022/03/05 04:29:41;;;;;;;4.30;2.90;;;;;;;2.22;53.18;101000.67;105945;1281;24247;-80
2022/03/05 04:32:09;;;;;;;5.80;2.80;;;;;;;2.21;53.07;101002.73;105987;1278;23757;-79
2022/03/05 04:34:36;;;;;;;4.40;2.80;;;;;;;2.21;53.02;101004.65;106261;1274;22533;-81
2022/03/05 04:37:04;;;;;;;4.70;2.90;;;;;;;2.17;53.04;101003.10;106364;1274;26457;-80
2022/03/05 04:39:31;;;;;;;4.40;2.70;;;;;;;2.11;52.91;100999.25;106177;1274;25295;-79
2022/03/05 04:41:58;;;;;;;3.00;2.20;;;;;;;2.10;53.21;101003.35;105465;1281;25381;-81
2022/03/05 04:44:25;;;;;;;4.50;2.80;;;;;;;2.12;53.50;101002.05;105670;1281;25405;-78
2022/03/05 04:46:52;;;;;;;5.90;3.10;;;;;;;2.17;53.46;101000.67;105479;1281;24547;-77
2022/03/05 04:49:21;;;;;;;3.80;2.50;;;;;;;2.17;53.39;101006.59;105624;1281;24729;-82
2022/03/05 04:51:49;;;;;;;4.50;2.60;;;;;;;2.18;53.38;101004.86;105467;1281;22575;-81
2022/03/05 04:54:16;;;;;;;2.50;2.30;;;;;;;2.16;53.23;101012.30;105613;1281;22564;-78
2022/03/05 04:56:44;;;;;;;4.30;3.00;;;;;;;2.17;53.54;101013.51;105665;1281;25013;-75
2022/03/05 04:59:11;;;;;;;4.60;3.10;;;;;;;2.13;53.42;101016.50;105619;1281;22553;-78
2022/03/05 05:01:38;;;;;;;4.70;2.80;;;;;;;2.13;53.43;101016.52;105663;1273;25244;-79
2022/03/05 05:04:05;;;;;;;5.00;3.10;;;;;;;2.13;53.49;101022.24;106010;1275;23600;-82
2022/03/05 05:06:32;;;;;;;3.80;2.60;;;;;;;2.18;53.60;101025.89;105974;1275;24229;-83
2022/03/05 05:09:00;;;;;;;4.50;3.30;;;;;;;2.20;53.71;101025.77;105927;1277;24229;-81
2022/03/05 05:11:27;;;;;;;4.50;2.90;;;;;;;2.19;53.75;101027.00;106163;1274;24076;-81
2022/03/05 05:13:54;;;;;;;3.40;2.50;;;;;;;2.19;53.76;101023.86;106199;1273;24381;-81
2022/03/05 05:16:21;;;;;;;4.80;2.70;;;;;;;2.19;53.77;101028.18;106093;1274;24295;-80
2022/03/05 05:21:35;;;;;;;3.90;2.20;;;;;;;2.26;53.83;101032.59;105617;1281;22571;-85
2022/03/05 05:24:02;;;;;;;5.40;3.50;;;;;;;2.26;53.81;101031.55;105662;1281;22616;-84
2022/03/05 05:26:29;;;;;;;3.10;2.40;;;;;;;2.27;53.76;101036.63;106472;1281;466083;-80
2022/03/05 05:28:56;;;;;;;5.10;2.90;;;;;;;2.27;53.46;101033.32;106753;1281;22495;-83
2022/03/05 05:31:23;;;;;;;5.40;3.10;;;;;;;2.30;53.59;101039.87;106185;1281;22548;-78
2022/03/05 05:33:52;;;;;;;4.20;2.80;;;;;;;2.28;53.34;101044.67;108312;1279;22571;-80
2022/03/05 05:36:19;;;;;;;3.30;2.40;;;;;;;2.22;53.37;101045.86;107458;1281;23325;-83
2022/03/05 05:38:46;;;;;;;4.60;2.90;;;;;;;2.19;53.56;101039.31;105634;1285;22655;-80
2022/03/05 05:41:14;;;;;;;6.90;2.90;;;;;;;2.25;53.53;101048.91;105935;1281;22535;-81
2022/03/05 05:43:42;;;;;;;3.50;2.90;;;;;;;2.28;53.52;101050.22;106325;1281;25673;-90
2022/03/05 05:46:09;;;;;;;3.60;2.80;;;;;;;2.30;53.34;101054.81;107208;1281;22580;-86
2022/03/05 05:48:52;;;;;;;4.30;2.90;;;;;;;2.26;53.17;101054.31;107288;1281;22543;-87
2022/03/05 05:51:19;;;;;;;5.40;2.90;;;;;;;2.30;53.29;101055.83;107687;1281;22624;-89
2022/03/05 05:53:50;;;;;;;4.20;2.80;;;;;;;2.25;53.22;101053.42;106606;1284;23409;-83
2022/03/05 05:56:17;;;;;;;4.50;3.00;;;;;;;2.29;53.35;101062.07;107259;1274;23028;-86
2022/03/05 05:58:45;;;;;;;4.50;3.20;;;;;;;2.33;53.57;101063.77;107191;1274;22476;-85
2022/03/05 06:01:12;;;;;;;5.50;3.00;;;;;;;2.31;53.54;101063.55;107092;1274;22680;-87
2022/03/05 06:03:40;;;;;;;5.40;2.70;;;;;;;2.29;53.38;101061.21;106744;1274;22555;-88
2022/03/05 06:06:07;;;;;;;5.30;3.30;;;;;;;2.20;53.46;101059.33;105957;1275;22548;-86
2022/03/05 06:08:34;;;;;;;5.20;3.40;;;;;;;2.20;53.77;101058.28;106011;1277;22790;-86
2022/03/05 06:11:01;;;;;;;3.20;2.60;;;;;;;2.27;53.84;101065.48;106049;1275;24277;-86
2022/03/05 06:13:28;;;;;;;4.70;2.90;;;;;;;2.32;53.73;101067.74;106339;1274;25381;-87
2022/03/05 06:15:55;;;;;;;8.90;3.40;;;;;;;2.30;53.63;101068.20;105820;1274;22547;-88
2022/03/05 06:18:22;;;;;;;5.80;3.30;;;;;;;2.30;53.89;101070.79;106579;1274;22592;-88
2022/03/05 06:20:54;;;;;;;4.10;3.10;;;;;;;2.32;53.89;101072.79;106191;1277;22984;-77
2022/03/05 06:23:23;;;;;;;4.90;3.40;;;;;;;2.28;53.86;101075.27;105654;1278;25480;-79
2022/03/05 06:25:51;;;;;;;5.70;3.30;;;;;;;2.24;53.77;101079.13;105785;1277;25352;-89
2022/03/05 06:28:27;;;;;;;8.40;3.30;;;;;;;2.24;53.74;101080.34;108402;1263;22360;31
2022/03/05 06:31:22;;;;;;;7.10;3.10;;;;;;;2.21;53.76;101077.61;109558;1261;22424;31
2022/03/05 06:34:40;;;;;;;3.50;2.60;;;;;;;2.25;53.90;101078.26;109073;1266;23067;31
2022/03/05 06:37:29;;;;;;;;;;;;;;;2.35;54.03;101084.89;109189;1265;22580;31
2022/03/05 06:39:57;;;;;;;5.40;3.10;;;;;;;2.41;53.97;101090.66;108836;1267;22630;-91
2022/03/05 06:42:33;;;;;;;6.20;2.90;;;;;;;2.48;54.04;101087.95;109423;1265;23051;31
2022/03/05 06:45:00;;;;;;;5.00;3.50;;;;;;;2.57;53.98;101088.98;108379;1266;22564;-84
2022/03/05 06:47:27;;;;;;;4.30;3.40;;;;;;;2.61;53.69;101087.52;105189;1284;22918;-84
2022/03/05 06:49:54;;;;;;;4.50;2.90;;;;;;;2.61;53.53;101093.96;105265;1284;23942;-85
2022/03/05 06:52:21;;;;;;;4.00;2.70;;;;;;;2.64;53.69;101096.15;105263;1288;23981;-82
2022/03/05 06:54:48;;;;;;;6.60;3.10;;;;;;;2.67;53.54;101096.06;104694;1287;22546;-83
2022/03/05 06:57:15;;;;;;;5.10;3.40;;;;;;;2.68;53.48;101093.49;104902;1287;22558;-82
2022/03/05 06:59:42;;;;;;;4.50;3.10;;;;;;;2.70;53.31;101104.36;104844;1287;22561;-79
2022/03/05 07:02:10;;;;;;;7.60;3.70;;;;;;;2.70;53.34;101103.66;104675;1288;25550;-83
2022/03/05 07:04:37;;;;;;;5.80;3.50;;;;;;;2.71;53.49;101104.39;104800;1287;22649;-83
2022/03/05 07:07:04;;;;;;;6.70;3.50;;;;;;;2.75;53.45;101102.77;105307;1282;25538;-81
2022/03/05 07:09:31;;;;;;;6.00;3.50;;;;;;;2.80;53.36;101102.45;105560;1281;22616;-82
2022/03/05 07:11:59;;;;;;;7.30;3.60;;;;;;;2.86;53.21;101101.08;104864;1285;23010;-81
2022/03/05 07:14:26;;;;;;;7.10;3.90;;;;;;;2.91;53.30;101103.67;105064;1285;24460;-83
2022/03/05 07:16:54;;;;;;;9.60;3.80;;;;;;;2.96;53.13;101101.23;104969;1285;25257;-81
2022/03/05 07:19:21;;;;;;;7.20;4.20;;;;;;;3.00;53.22;101105.19;105148;1285;24306;-80
2022/03/05 07:21:49;;;;;;;6.00;3.70;;;;;;;3.02;53.18;101106.49;104778;1285;25439;-84
2022/03/05 07:24:16;;;;;;;5.50;3.90;;;;;;;3.01;52.97;101105.40;105336;1285;22716;-86
2022/03/05 07:26:43;;;;;;;5.70;3.90;;;;;;;2.99;53.11;101108.11;105399;1285;24123;-88
2022/03/05 07:29:13;;;;;;;7.30;3.30;;;;;;;3.04;53.21;101105.67;105647;1285;22571;-76
2022/03/05 07:31:40;;;;;;;6.60;3.80;;;;;;;3.04;52.98;101108.45;106438;1277;22570;-90
2022/03/05 07:34:08;;;;;;;5.50;3.80;;;;;;;3.05;52.95;101109.01;106927;1279;22775;-89
2022/03/05 07:36:35;;;;;;;4.50;3.50;;;;;;;3.07;52.99;101115.36;105886;1284;22856;-90
2022/03/05 07:39:04;;;;;;;6.10;4.00;;;;;;;3.08;52.96;101116.94;106183;1284;22488;-90
2022/03/05 07:41:30;;;;;;;8.30;5.50;;;;;;;3.12;52.84;101119.15;106068;1284;22635;-88
2022/03/05 07:43:57;;;;;;;5.50;3.90;;;;;;;3.16;52.72;101120.52;106456;1284;22546;-82
2022/03/05 07:46:24;;;;;;;7.80;3.70;;;;;;;3.23;52.86;101118.31;105418;1284;24303;-78
2022/03/05 07:48:51;;;;;;;6.80;3.40;;;;;;;3.32;52.77;101120.34;105348;1284;25260;-77
2022/03/05 07:51:18;;;;;;;5.90;3.90;;;;;;;3.33;52.46;101120.00;105184;1284;22502;-78
2022/03/05 07:53:45;;;;;;;5.40;3.90;;;;;;;3.37;52.52;101118.05;105420;1284;22553;-77
2022/03/05 07:56:12;;;;;;;5.20;3.70;;;;;;;3.41;52.62;101125.30;105745;1279;23927;-77
2022/03/05 07:58:39;;;;;;;6.50;3.60;;;;;;;3.50;52.45;101122.63;105627;1280;22565;-81
2022/03/05 08:01:06;;;;;;;5.70;3.60;;;;;;;3.60;52.30;101125.93;104968;1284;25539;-78
2022/03/05 08:03:34;;;;;;;5.20;3.40;;;;;;;3.66;51.95;101124.55;105408;1284;24262;-78
2022/03/05 08:06:01;;;;;;;4.80;3.00;;;;;;;3.67;51.77;101117.23;105290;1284;23103;-79
2022/03/05 08:08:28;;;;;;;4.70;3.80;;;;;;;3.71;51.67;101119.11;105299;1284;24419;-77
2022/03/05 08:10:56;;;;;;;5.40;4.00;;;;;;;3.77;51.43;101118.23;105319;1284;24271;-78
2022/03/05 08:13:23;;;;;;;7.50;4.60;;;;;;;3.78;51.36;101121.91;105100;1285;23084;-78
2022/03/05 08:15:51;;;;;;;7.90;3.50;;;;;;;3.83;51.24;101125.92;105270;1284;24242;-76
2022/03/05 08:18:20;;;;;;;5.50;3.70;;;;;;;3.94;51.04;101122.23;105204;1284;25891;-78
2022/03/05 08:20:47;;;;;;;4.80;3.40;;;;;;;3.98;50.86;101123.38;105801;1279;23366;-78
2022/03/05 08:23:14;;;;;;;6.90;3.80;;;;;;;4.05;50.81;101126.91;105704;1279;25242;-74
2022/03/05 08:25:44;;;;;;;11.80;8.00;;;;;;;4.05;50.30;101124.98;105192;1285;22784;-74
2022/03/05 08:28:11;;;;;;;6.20;4.30;;;;;;;4.11;50.12;101129.02;105077;1285;23222;-76
2022/03/05 08:30:40;;;;;;;6.80;4.40;;;;;;;4.15;50.14;101133.15;105134;1285;22545;-77
2022/03/05 08:33:07;;;;;;;6.00;3.70;;;;;;;4.21;49.94;101128.08;104677;1290;25553;-74
2022/03/05 08:35:35;;;;;;;7.90;4.70;;;;;;;4.23;49.98;101128.29;105680;1287;22570;-74
2022/03/05 08:38:02;;;;;;;7.30;3.70;;;;;;;4.19;49.88;101132.38;106624;1288;22576;-80
2022/03/05 08:40:29;;;;;;;6.60;4.90;;;;;;;4.24;49.98;101134.95;105589;1288;22607;-78
2022/03/05 08:42:55;;;;;;;5.90;4.00;;;;;;;4.28;49.86;101135.95;107212;1287;22597;-77
2022/03/05 08:45:29;;;;;;;8.50;4.10;;;;;;;4.33;49.51;101139.92;108512;1282;22599;-77
2022/03/05 08:47:57;;;;;;;7.80;3.80;;;;;;;4.34;49.59;101138.37;106271;1282;24183;-81
2022/03/05 08:50:24;;;;;;;4.10;3.70;;;;;;;4.37;49.68;101137.09;106079;1279;24307;-83
2022/03/05 08:52:51;;;;;;;3.90;3.30;;;;;;;4.48;49.40;101139.80;105719;1279;24176;-77
2022/03/05 08:55:19;;;;;;;5.20;3.50;;;;;;;4.52;49.14;101141.48;105672;1279;22679;-75
2022/03/05 08:57:46;;;;;;;6.30;4.20;;;;;;;4.55;49.22;101143.31;105978;1278;22755;-75
2022/03/05 09:00:15;;;;;;;7.60;4.10;;;;;;;4.54;49.04;101140.84;105521;1279;25249;-77
2022/03/05 09:02:42;;;;;;;5.30;3.70;;;;;;;4.56;48.76;101144.58;105734;1278;22629;-75
2022/03/05 09:05:13;;;;;;;4.90;3.70;;;;;;;4.60;48.95;101143.98;105820;1281;23960;-77
2022/03/05 09:07:42;;;;;;;4.50;3.50;;;;;;;4.62;48.73;101141.77;106039;1278;25372;-79
2022/03/05 09:10:11;;;;;;;5.20;3.40;;;;;;;4.69;48.55;101148.77;105818;1278;23955;-77
2022/03/05 09:12:39;;;;;;;4.40;3.30;;;;;;;4.77;48.12;101143.55;105920;1279;22560;-78
2022/03/05 09:15:07;;;;;;;4.30;2.90;;;;;;;4.80;47.88;101148.35;105833;1279;24234;-73
2022/03/05 09:17:34;;;;;;;5.50;3.40;;;;;;;4.79;47.67;101147.80;105583;1279;22545;-74
2022/03/05 09:20:01;;;;;;;4.50;3.10;;;;;;;4.85;47.45;101152.34;105147;1285;24281;-77
2022/03/05 09:22:28;;;;;;;4.40;3.30;;;;;;;4.91;47.37;101148.99;105176;1285;23717;-75
2022/03/05 09:24:55;;;;;;;5.40;3.30;;;;;;;5.01;47.03;101156.05;104861;1287;24395;-76
2022/03/05 09:27:27;;;;;;;5.00;3.00;;;;;;;5.05;46.76;101154.42;105179;1285;23778;-75
2022/03/05 09:29:55;;;;;;;6.40;2.80;;;;;;;5.11;46.50;101152.11;105417;1284;23495;-75
2022/03/05 09:32:23;;;;;;;5.30;2.90;;;;;;;5.13;46.13;101155.84;105488;1285;22746;-74
2022/03/05 09:34:51;;;;;;;4.40;2.60;;;;;;;5.11;45.97;101154.55;105120;1284;22553;-73
2022/03/05 09:37:18;;;;;;;4.30;2.90;;;;;;;5.11;45.93;101152.98;105040;1283;23009;-73
2022/03/05 09:39:47;;;;;;;3.30;3.00;;;;;;;5.12;45.70;101155.09;105991;1278;22636;-81
2022/03/05 09:42:14;;;;;;;5.50;2.90;;;;;;;5.09;45.64;101162.36;105717;1279;22575;-77
2022/03/05 09:44:41;;;;;;;5.40;3.50;;;;;;;5.05;45.72;101164.20;106061;1279;22664;-74
2022/03/05 09:47:09;;;;;;;5.00;3.40;;;;;;;5.06;45.75;101163.86;105943;1277;24231;-73
2022/03/05 09:49:38;;;;;;;4.80;3.60;;;;;;;4.99;45.71;101161.60;106198;1276;25312;-75
2022/03/05 09:52:08;;;;;;;5.60;3.70;;;;;;;4.96;46.25;101163.27;105379;1285;24240;-76
2022/03/05 09:54:37;;;;;;;4.20;2.60;;;;;;;4.91;46.01;101165.73;106388;1282;23027;-75
2022/03/05 09:57:14;;;;;;;9.60;3.10;;;;;;;4.88;45.93;101165.32;105891;1282;22534;-76
2022/03/05 09:59:41;;;;;;;4.50;3.00;;;;;;;4.85;45.78;101170.63;105451;1282;25346;-76
2022/03/05 10:02:11;;;;;;;5.20;3.30;;;;;;;4.85;45.91;101168.02;105538;1282;25935;-77
2022/03/05 10:04:39;;;;;;;6.00;2.90;;;;;;;4.86;45.46;101169.11;105260;1283;24292;-74
2022/03/05 10:07:09;;;;;;;4.30;3.00;;;;;;;4.79;45.08;101174.00;105307;1282;25534;-76
2022/03/05 10:09:38;;;;;;;3.60;2.70;;;;;;;4.66;44.83;101178.17;105679;1282;22730;-73
2022/03/05 10:12:35;;;;;;;4.60;2.70;;;;;;;4.58;44.98;101178.81;106018;1277;24270;-73
2022/03/05 10:15:10;;;;;;;3.10;2.50;;;;;;;4.51;44.98;101184.39;105761;1279;25315;-75
2022/03/05 10:18:02;;;;;;;5.80;2.80;;;;;;;4.45;44.85;101178.80;105992;1276;24350;-71
2022/03/05 10:20:33;;;;;;;5.80;3.10;;;;;;;4.37;44.62;101183.96;106132;1276;25474;-72
2022/03/05 10:23:03;;;;;;;3.90;3.00;;;;;;;4.35;44.92;101184.98;106204;1276;22589;-72
2022/03/05 10:25:35;;;;;;;3.60;2.70;;;;;;;4.39;45.11;101184.92;105847;1276;26556;-73
2022/03/05 10:28:15;;;;;;;4.50;2.60;;;;;;;4.44;45.00;101184.17;105908;1277;26504;-73
2022/03/05 10:30:49;;;;;;;3.70;2.20;;;;;;;4.47;44.79;101184.45;105377;1284;25439;-73
2022/03/05 10:33:25;;;;;;;3.00;2.50;;;;;;;4.45;44.72;101187.52;105336;1284;22541;-77
2022/03/05 10:35:54;;;;;;;3.60;2.60;;;;;;;4.44;44.63;101189.41;105330;1284;22738;-75
2022/03/05 10:38:21;;;;;;;4.60;3.40;;;;;;;4.42;44.33;101193.55;105156;1284;22578;-76
2022/03/05 10:40:57;;;;;;;5.50;2.50;;;;;;;4.33;43.73;101189.63;105226;1285;22543;-77
2022/03/05 10:43:24;;;;;;;3.60;2.10;;;;;;;4.20;43.33;101191.52;105199;1285;22676;-73
2022/03/05 10:45:54;;;;;;;4.60;3.00;;;;;;;4.15;43.50;101191.55;104879;1288;24252;-79
2022/03/05 10:48:24;;;;;;;2.80;2.10;;;;;;;4.11;43.53;101190.19;104838;1285;24093;-79
2022/03/05 10:50:58;;;;;;;2.90;2.30;;;;;;;4.08;43.54;101191.00;105080;1285;22671;-78
2022/03/05 10:53:48;;;;;;;3.90;2.60;;;;;;;4.08;43.59;101192.55;104587;1290;22667;-75
2022/03/05 10:56:31;;;;;;;4.00;2.20;;;;;;;4.16;43.40;101190.16;104645;1290;24321;-73
2022/03/05 10:59:08;;;;;;;2.50;2.30;;;;;;;4.20;43.16;101192.05;104460;1290;22811;-84
2022/03/05 11:01:40;;;;;;;5.30;2.70;;;;;;;4.22;42.89;101189.30;104471;1290;25235;-75
2022/03/05 11:04:10;;;;;;;5.10;3.00;;;;;;;4.20;42.77;101187.15;104788;1285;25382;-76
2022/03/05 11:06:40;;;;;;;5.00;2.90;;;;;;;4.26;42.91;101186.79;104689;1290;22630;-75
2022/03/05 11:09:09;;;;;;;2.90;2.20;;;;;;;4.32;42.79;101185.95;104387;1290;24684;-77
2022/03/05 11:11:39;;;;;;;2.50;2.20;;;;;;;4.38;42.39;101185.23;104771;1284;23943;-76
2022/03/05 11:14:11;;;;;;;2.90;2.00;;;;;;;4.39;41.87;101180.73;105192;1283;22731;-75
2022/03/05 11:16:38;;;;;;;2.10;1.60;;;;;;;4.41;41.80;101178.69;105252;1282;26108;-75
2022/03/05 11:23:22;;;;;;;3.10;1.60;;;;;;;4.30;41.60;101178.04;105053;1282;22567;-76
2022/03/05 11:26:16;;;;;;;3.40;2.00;;;;;;;4.32;41.70;101177.55;105473;1279;25560;-75
2022/03/05 11:28:49;;;;;;;3.00;1.90;;;;;;;4.38;41.24;101177.91;105195;1285;24585;-77
2022/03/05 11:31:21;;;;;;;3.00;2.30;;;;;;;4.33;41.29;101173.75;104943;1284;22585;-77
2022/03/05 11:33:50;;;;;;;3.30;2.10;;;;;;;4.39;41.22;101170.08;105131;1285;24270;-76
2022/03/05 11:36:30;;;;;;;2.90;2.20;;;;;;;4.41;40.98;101168.58;105051;1285;22676;-75
2022/03/05 11:39:31;;;;;;;4.70;2.70;;;;;;;4.49;41.00;101165.99;105255;1285;22529;-79
2022/03/05 11:42:04;;;;;;;3.40;2.40;;;;;;;4.56;40.79;101160.45;104547;1291;26804;-79